CheckWX is a tool to help pilots better visualize weather data.  It is not intended as a substitute for an official pre-flight weather briefing.

21:01:33 UTC

DXXX METAR
Lomé-Tokoin Airport
Lomé, Togo
Current

1 hour ago

DXXX 232000Z 22012KT 9999 FEW014 29/26 Q1009 NOSIG
Observed
Feb-23 @ 20:00 UTC
Wind
  • 220° at 12 KTS
Visibility
10,000+ meters
Flight Rules
VFR
Cloud Levels
  • Few at 1,400' AGL
Temperature
29°C / 84°F
Dewpoint
26°C / 79°F
Humidity
84%
Altimeter
29.79" Hg
Pressure
1008.92 hPa
Previous

2 hours ago

DXXX 231900Z 21013KT 9999 FEW014 30/27 Q1009 NOSIG
Observed
Feb-23 @ 19:00 UTC
Wind
  • 210° at 13 KTS
Visibility
10,000+ meters
Flight Rules
VFR
Cloud Levels
  • Few at 1,400' AGL
Temperature
30°C / 86°F
Dewpoint
27°C / 81°F
Humidity
84%
Altimeter
29.79" Hg
Pressure
1008.92 hPa
Previous

3 hours ago

DXXX 231800Z 22015KT 9999 FEW014 FEW020CB 30/26 Q1008 NOSIG
Observed
Feb-23 @ 18:00 UTC
Wind
  • 220° at 15 KTS
Visibility
10,000+ meters
Flight Rules
VFR
Cloud Levels
  • Few at 1,400' AGL
  • Few at 2,000' AGL
Temperature
30°C / 86°F
Dewpoint
26°C / 79°F
Humidity
79%
Altimeter
29.76" Hg
Pressure
1007.92 hPa